Time;durP1;ratioP1;P1;durP2;ratioP2;P2;SDS_P1;SDS_P2;PMS_P1;PMS_P2;Temp;Humidity;BMP_temperature;BMP_pressure;BME280_temperature;BME280_humidity;BME280_pressure;Samples;Min_cycle;Max_cycle;Signal;HPM_P1;HPM_P2
2023/05/24 00:00:22;;;;;;;6.28;3.38;;;;;;;;;;5032168;28;20046;-70
2023/05/24 00:02:48;;;;;;;8.95;3.80;;;;;;;;;;5030984;28;20055;-70
2023/05/24 00:05:15;;;;;;;6.60;3.67;;;;;;;;;;5031388;28;20049;-71
2023/05/24 00:07:42;;;;;;;9.05;3.58;;;;;;;;;;5030433;28;20514;-70
2023/05/24 00:10:10;;;;;;;6.72;3.10;;;;;;;;;;5031375;28;20068;-70
2023/05/24 00:12:38;;;;;;;7.30;4.45;;;;;;;;;;5031066;28;20050;-71
2023/05/24 00:15:05;;;;;;;6.78;3.47;;;;;;;;;;5031266;28;20053;-71
2023/05/24 00:17:33;;;;;;;6.00;3.90;;;;;;;;;;5031111;28;20061;-70
2023/05/24 00:20:00;;;;;;;7.30;3.53;;;;;;;;;;5030262;28;20056;-71
2023/05/24 00:22:26;;;;;;;7.97;4.43;;;;;;;;;;5031010;28;20422;-70
2023/05/24 00:24:53;;;;;;;8.90;4.03;;;;;;;;;;5030709;28;20049;-70
2023/05/24 00:27:19;;;;;;;11.48;3.60;;;;;;;;;;5030970;28;20136;-70
2023/05/24 00:29:47;;;;;;;8.13;3.67;;;;;;;;;;5030217;28;21000;-70
2023/05/24 00:32:14;;;;;;;9.65;3.88;;;;;;;;;;5031135;28;20072;-70
2023/05/24 00:34:40;;;;;;;11.73;4.15;;;;;;;;;;5030438;28;20418;-70
2023/05/24 00:37:07;;;;;;;6.43;4.22;;;;;;;;;;5030795;28;20049;-70
2023/05/24 00:39:34;;;;;;;7.75;3.80;;;;;;;;;;5029941;28;20041;-70
2023/05/24 00:42:00;;;;;;;8.00;4.13;;;;;;;;;;5030780;28;20053;-71
2023/05/24 00:44:27;;;;;;;7.00;3.97;;;;;;;;;;5029606;28;20054;-70
2023/05/24 00:46:55;;;;;;;9.45;4.78;;;;;;;;;;5030671;28;20054;-70
2023/05/24 00:49:22;;;;;;;6.25;3.90;;;;;;;;;;5029737;28;20072;-71
2023/05/24 00:51:50;;;;;;;10.00;4.20;;;;;;;;;;5030625;28;20056;-71
2023/05/24 00:54:16;;;;;;;8.48;4.05;;;;;;;;;;5030676;28;20049;-70
2023/05/24 00:56:43;;;;;;;7.78;3.67;;;;;;;;;;5030158;28;20054;-70
2023/05/24 00:59:10;;;;;;;8.63;3.72;;;;;;;;;;5030611;28;20045;-70
2023/05/24 01:01:36;;;;;;;6.45;4.45;;;;;;;;;;5029651;28;20054;-70
2023/05/24 01:04:04;;;;;;;10.55;4.15;;;;;;;;;;5030301;28;20048;-70
2023/05/24 01:06:35;;;;;;;10.88;4.25;;;;;;;;;;5030020;28;20480;-70
2023/05/24 01:09:17;;;;;;;7.13;3.92;;;;;;;;;;5030490;28;20442;-69
2023/05/24 01:11:53;;;;;;;9.32;4.35;;;;;;;;;;5029858;28;20056;-69
2023/05/24 01:14:26;;;;;;;7.60;3.85;;;;;;;;;;5050357;28;20514;-70
2023/05/24 01:16:56;;;;;;;10.10;4.60;;;;;;;;;;5050192;28;20060;-70
2023/05/24 01:19:52;;;;;;;8.88;4.40;;;;;;;;;;5050472;28;20481;-69
2023/05/24 01:22:48;;;;;;;10.95;4.10;;;;;;;;;;5049556;28;20053;-71
2023/05/24 01:25:22;;;;;;;7.78;4.05;;;;;;;;;;5041324;28;20525;-70
2023/05/24 01:27:51;;;;;;;7.25;4.25;;;;;;;;;;5049726;28;20056;-70
2023/05/24 01:30:18;;;;;;;9.40;4.47;;;;;;;;;;5049791;28;20045;-70
2023/05/24 01:32:45;;;;;;;8.15;4.28;;;;;;;;;;5049648;28;20045;-70
2023/05/24 01:35:11;;;;;;;7.13;3.97;;;;;;;;;;5049055;28;20054;-71
2023/05/24 01:37:38;;;;;;;10.00;3.92;;;;;;;;;;5049612;28;20052;-69
2023/05/24 01:40:06;;;;;;;9.18;4.00;;;;;;;;;;5049676;28;20534;-70
2023/05/24 01:42:41;;;;;;;8.35;4.00;;;;;;;;;;5049892;28;20053;-70
2023/05/24 01:45:19;;;;;;;6.10;4.13;;;;;;;;;;5049842;28;20053;-71
2023/05/24 01:47:58;;;;;;;10.00;3.88;;;;;;;;;;5049767;28;20132;-70
2023/05/24 01:50:27;;;;;;;9.10;4.38;;;;;;;;;;5049487;28;20044;-71
2023/05/24 01:52:58;;;;;;;10.13;4.22;;;;;;;;;;5049883;28;20120;-71
2023/05/24 01:55:27;;;;;;;9.40;4.28;;;;;;;;;;5049809;28;20053;-70
2023/05/24 01:58:00;;;;;;;7.63;3.85;;;;;;;;;;5054088;28;20126;-69
2023/05/24 02:00:29;;;;;;;14.50;4.28;;;;;;;;;;5052931;28;20049;-70
2023/05/24 02:02:57;;;;;;;11.75;4.75;;;;;;;;;;5054038;28;20045;-69
2023/05/24 02:05:24;;;;;;;9.70;4.05;;;;;;;;;;5053189;28;20049;-69
2023/05/24 02:07:50;;;;;;;9.73;3.92;;;;;;;;;;5052298;28;20057;-70
2023/05/24 02:10:17;;;;;;;8.95;4.28;;;;;;;;;;5052742;28;20049;-70
2023/05/24 02:12:43;;;;;;;7.25;3.97;;;;;;;;;;5053548;28;20045;-70
2023/05/24 02:15:13;;;;;;;10.60;4.68;;;;;;;;;;5053168;28;20231;-70
2023/05/24 02:17:41;;;;;;;5.97;4.60;;;;;;;;;;5053679;28;20552;-70
2023/05/24 02:20:09;;;;;;;9.18;4.30;;;;;;;;;;5052556;28;20048;-70
2023/05/24 02:22:36;;;;;;;11.00;4.78;;;;;;;;;;5053297;28;20060;-70
2023/05/24 02:25:02;;;;;;;8.57;4.28;;;;;;;;;;5053472;28;20529;-71
2023/05/24 02:27:29;;;;;;;10.98;4.35;;;;;;;;;;5052426;28;20065;-70
2023/05/24 02:29:56;;;;;;;9.52;3.38;;;;;;;;;;5050589;28;20081;-70
2023/05/24 02:32:22;;;;;;;9.38;4.45;;;;;;;;;;5051606;28;20442;-70
2023/05/24 02:34:50;;;;;;;13.35;4.78;;;;;;;;;;5052458;28;20410;-70
2023/05/24 02:37:17;;;;;;;6.70;3.92;;;;;;;;;;5052245;28;20054;-70
2023/05/24 02:39:43;;;;;;;8.85;4.40;;;;;;;;;;5052177;28;20048;-70
2023/05/24 02:42:10;;;;;;;7.53;4.65;;;;;;;;;;5052490;28;20203;-70
2023/05/24 02:44:36;;;;;;;9.52;4.72;;;;;;;;;;5052795;28;20055;-70
2023/05/24 02:47:03;;;;;;;7.10;4.03;;;;;;;;;;5052620;28;20052;-70
2023/05/24 02:49:30;;;;;;;9.95;4.95;;;;;;;;;;5052452;28;20064;-71
2023/05/24 02:51:57;;;;;;;9.90;4.40;;;;;;;;;;5052475;28;20051;-71
2023/05/24 02:54:24;;;;;;;7.85;3.88;;;;;;;;;;5052678;28;20465;-70
2023/05/24 02:56:51;;;;;;;8.93;4.70;;;;;;;;;;5052822;28;20492;-71
2023/05/24 02:59:18;;;;;;;10.13;4.45;;;;;;;;;;5052548;28;20048;-70
2023/05/24 03:01:44;;;;;;;9.07;4.20;;;;;;;;;;5052451;28;20052;-71
2023/05/24 03:04:11;;;;;;;11.32;4.57;;;;;;;;;;5052940;28;20045;-69
2023/05/24 03:06:37;;;;;;;10.85;4.93;;;;;;;;;;5062857;22;20036;-67
2023/05/24 03:09:05;;;;;;;11.20;5.07;;;;;;;;;;5031037;28;20046;-67
2023/05/24 03:11:32;;;;;;;10.43;4.55;;;;;;;;;;5032144;28;20510;-67
2023/05/24 03:13:59;;;;;;;11.70;4.95;;;;;;;;;;5031972;28;20069;-66
2023/05/24 03:16:25;;;;;;;11.43;5.10;;;;;;;;;;5032168;28;20069;-66
2023/05/24 03:18:54;;;;;;;10.90;4.75;;;;;;;;;;5031990;28;20057;-66
2023/05/24 03:21:22;;;;;;;9.35;4.78;;;;;;;;;;5031696;28;20095;-67
2023/05/24 03:23:48;;;;;;;7.32;4.07;;;;;;;;;;5031788;28;20060;-67
2023/05/24 03:26:17;;;;;;;10.15;4.70;;;;;;;;;;5031865;28;20128;-66
2023/05/24 03:28:44;;;;;;;8.82;4.40;;;;;;;;;;5031753;28;20494;-67
2023/05/24 03:31:10;;;;;;;9.57;4.65;;;;;;;;;;5031861;28;20046;-66
2023/05/24 03:33:37;;;;;;;9.23;5.20;;;;;;;;;;5031948;28;20049;-66
2023/05/24 03:36:04;;;;;;;8.93;4.97;;;;;;;;;;5031486;28;20045;-65
2023/05/24 03:38:32;;;;;;;20.00;5.32;;;;;;;;;;5032037;28;20049;-66
2023/05/24 03:40:59;;;;;;;10.68;4.93;;;;;;;;;;5031056;28;20080;-66
2023/05/24 03:43:26;;;;;;;10.75;4.57;;;;;;;;;;5032113;28;20049;-66
2023/05/24 03:45:53;;;;;;;11.63;5.70;;;;;;;;;;5031622;28;20049;-66
2023/05/24 03:48:20;;;;;;;8.40;4.28;;;;;;;;;;5031650;28;20410;-66
2023/05/24 03:50:47;;;;;;;10.27;5.03;;;;;;;;;;5030626;28;20496;-66
2023/05/24 03:53:13;;;;;;;9.48;5.05;;;;;;;;;;5031884;28;20048;-66
2023/05/24 03:55:40;;;;;;;10.85;5.57;;;;;;;;;;5031007;28;20052;-66
2023/05/24 03:58:06;;;;;;;12.27;5.18;;;;;;;;;;5031703;28;20049;-66
2023/05/24 04:00:34;;;;;;;10.60;4.63;;;;;;;;;;5030632;28;20053;-66
2023/05/24 04:03:01;;;;;;;13.07;4.45;;;;;;;;;;5031576;28;20042;-66
2023/05/24 04:05:28;;;;;;;12.23;4.95;;;;;;;;;;5030782;28;20084;-66
2023/05/24 04:07:55;;;;;;;11.70;5.07;;;;;;;;;;5031712;28;20482;-66
2023/05/24 04:10:21;;;;;;;8.05;4.60;;;;;;;;;;5031383;28;20068;-66
2023/05/24 04:12:48;;;;;;;7.40;4.47;;;;;;;;;;5031211;28;20050;-66
2023/05/24 04:15:15;;;;;;;11.25;4.68;;;;;;;;;;5031295;28;20049;-66
2023/05/24 04:17:43;;;;;;;13.18;5.05;;;;;;;;;;5030598;28;20045;-65
2023/05/24 04:20:11;;;;;;;10.90;4.65;;;;;;;;;;5030540;28;20056;-66
2023/05/24 04:22:37;;;;;;;10.77;4.75;;;;;;;;;;5030903;28;20053;-66
2023/05/24 04:25:05;;;;;;;9.43;5.32;;;;;;;;;;5031150;28;20056;-66
2023/05/24 04:27:31;;;;;;;8.27;4.45;;;;;;;;;;5030532;28;20504;-66
2023/05/24 04:29:58;;;;;;;10.52;5.20;;;;;;;;;;5030532;28;20049;-66
2023/05/24 04:32:25;;;;;;;13.73;4.80;;;;;;;;;;5030288;28;20523;-66
2023/05/24 04:34:54;;;;;;;11.25;5.57;;;;;;;;;;5031143;28;20049;-66
2023/05/24 04:37:20;;;;;;;10.32;5.32;;;;;;;;;;5030386;28;20077;-66
2023/05/24 04:39:47;;;;;;;10.27;5.65;;;;;;;;;;5030462;28;20519;-66
2023/05/24 04:42:13;;;;;;;14.32;6.40;;;;;;;;;;5030413;28;20048;-66
2023/05/24 04:44:41;;;;;;;13.02;5.43;;;;;;;;;;5030583;28;20411;-66
2023/05/24 04:47:08;;;;;;;18.58;5.53;;;;;;;;;;5030201;28;20057;-66
2023/05/24 04:49:35;;;;;;;11.95;4.78;;;;;;;;;;5029972;28;20041;-66
2023/05/24 04:52:03;;;;;;;15.40;5.43;;;;;;;;;;5030459;28;20045;-66
2023/05/24 04:54:29;;;;;;;14.75;5.25;;;;;;;;;;5030111;28;20531;-66
2023/05/24 04:56:56;;;;;;;12.65;5.68;;;;;;;;;;5030548;28;20046;-66
2023/05/24 04:59:22;;;;;;;10.98;5.07;;;;;;;;;;5029956;28;20402;-66
2023/05/24 05:01:49;;;;;;;10.63;4.63;;;;;;;;;;5030218;28;20045;-66
2023/05/24 05:04:16;;;;;;;13.18;5.68;;;;;;;;;;5030377;28;20046;-66
2023/05/24 05:06:43;;;;;;;14.20;5.03;;;;;;;;;;5030273;28;20045;-66
2023/05/24 05:09:12;;;;;;;12.30;5.15;;;;;;;;;;5029846;28;20053;-66
2023/05/24 05:11:39;;;;;;;11.88;4.97;;;;;;;;;;5029900;28;20490;-67
2023/05/24 05:14:08;;;;;;;12.52;4.63;;;;;;;;;;5029732;28;20046;-66
2023/05/24 05:16:34;;;;;;;10.07;4.35;;;;;;;;;;5030523;28;20103;-66
2023/05/24 05:19:03;;;;;;;11.02;4.88;;;;;;;;;;5030444;28;20514;-66
2023/05/24 05:21:31;;;;;;;17.92;5.18;;;;;;;;;;5029927;28;20052;-67
2023/05/24 05:23:58;;;;;;;11.52;4.35;;;;;;;;;;5030365;28;20092;-66
2023/05/24 05:26:26;;;;;;;13.55;4.25;;;;;;;;;;5029734;28;20388;-66
2023/05/24 05:28:53;;;;;;;13.32;4.25;;;;;;;;;;5030212;28;20049;-66
2023/05/24 05:31:20;;;;;;;15.75;5.25;;;;;;;;;;5028862;28;20042;-66
2023/05/24 05:33:46;;;;;;;10.68;4.22;;;;;;;;;;5030293;28;20050;-66
2023/05/24 05:36:13;;;;;;;8.13;4.05;;;;;;;;;;5029835;28;20411;-66
2023/05/24 05:38:39;;;;;;;9.77;3.70;;;;;;;;;;5029827;28;20060;-66
2023/05/24 05:41:06;;;;;;;8.10;4.18;;;;;;;;;;5029031;28;20045;-66
2023/05/24 05:43:34;;;;;;;9.18;3.78;;;;;;;;;;5030003;28;20045;-66
2023/05/24 05:46:00;;;;;;;14.43;4.38;;;;;;;;;;5027261;28;20048;-66
2023/05/24 05:48:27;;;;;;;12.05;4.22;;;;;;;;;;5027333;28;20053;-66
2023/05/24 05:50:54;;;;;;;10.52;3.70;;;;;;;;;;5028186;28;20061;-66
2023/05/24 05:53:20;;;;;;;9.93;3.42;;;;;;;;;;5027626;28;20050;-66
2023/05/24 05:55:47;;;;;;;8.05;3.97;;;;;;;;;;5027201;28;20037;-66
2023/05/24 05:58:13;;;;;;;8.88;3.67;;;;;;;;;;5028354;28;20045;-66
2023/05/24 06:00:41;;;;;;;7.25;3.20;;;;;;;;;;5027496;28;20037;-65
2023/05/24 06:03:07;;;;;;;9.90;3.70;;;;;;;;;;5026958;28;20503;-66
2023/05/24 06:05:34;;;;;;;12.18;3.83;;;;;;;;;;5026351;28;20042;-66
2023/05/24 06:08:00;;;;;;;9.80;3.65;;;;;;;;;;5027920;28;20049;-66
2023/05/24 06:10:27;;;;;;;8.52;3.67;;;;;;;;;;5028239;28;20056;-66
2023/05/24 06:12:54;;;;;;;7.88;3.42;;;;;;;;;;5027491;28;20100;-65
2023/05/24 06:15:21;;;;;;;7.20;3.15;;;;;;;;;;5025693;28;20053;-67
2023/05/24 06:17:50;;;;;;;9.00;3.33;;;;;;;;;;5027083;28;20128;-66
2023/05/24 06:20:17;;;;;;;9.20;2.90;;;;;;;;;;5025944;28;20415;-66
2023/05/24 06:22:44;;;;;;;9.43;3.03;;;;;;;;;;5013793;28;20045;-66
2023/05/24 06:25:13;;;;;;;5.40;2.58;;;;;;;;;;5026800;28;20060;-66
2023/05/24 06:27:40;;;;;;;10.15;3.17;;;;;;;;;;5028505;28;20041;-66
2023/05/24 06:30:08;;;;;;;6.50;3.17;;;;;;;;;;5027220;28;20484;-66
2023/05/24 06:32:34;;;;;;;6.85;2.40;;;;;;;;;;5025755;28;20510;-66
2023/05/24 06:35:03;;;;;;;9.73;2.92;;;;;;;;;;5027038;28;20407;-66
2023/05/24 06:37:30;;;;;;;7.90;2.53;;;;;;;;;;5029070;28;20089;-65
2023/05/24 06:39:56;;;;;;;9.35;2.50;;;;;;;;;;5029465;28;20046;-64
2023/05/24 06:42:23;;;;;;;7.50;2.70;;;;;;;;;;5028606;28;20053;-64
2023/05/24 06:44:49;;;;;;;7.88;2.60;;;;;;;;;;5031979;28;20053;-65
2023/05/24 06:47:16;;;;;;;8.07;2.60;;;;;;;;;;5032549;28;20130;-65
2023/05/24 06:49:42;;;;;;;11.20;2.80;;;;;;;;;;5032547;28;20438;-65
2023/05/24 06:52:12;;;;;;;11.48;2.83;;;;;;;;;;5033198;28;20401;-65
2023/05/24 06:54:39;;;;;;;6.25;2.10;;;;;;;;;;5032071;28;20100;-64
2023/05/24 06:57:05;;;;;;;7.95;2.53;;;;;;;;;;5032812;28;20453;-64
2023/05/24 06:59:32;;;;;;;8.80;2.22;;;;;;;;;;5031830;28;20057;-65
2023/05/24 07:01:58;;;;;;;10.20;1.95;;;;;;;;;;5032286;28;20483;-65
2023/05/24 07:04:25;;;;;;;8.40;2.28;;;;;;;;;;5031463;28;20054;-65
2023/05/24 07:06:52;;;;;;;8.10;2.33;;;;;;;;;;5031993;28;20129;-64
2023/05/24 07:09:20;;;;;;;6.05;2.65;;;;;;;;;;5032110;28;20052;-65
2023/05/24 07:11:47;;;;;;;11.18;3.45;;;;;;;;;;5030929;28;20049;-64
2023/05/24 07:14:13;;;;;;;7.78;1.92;;;;;;;;;;5032397;28;20056;-65
2023/05/24 07:16:40;;;;;;;6.75;2.05;;;;;;;;;;5030721;28;20065;-65
2023/05/24 07:19:06;;;;;;;11.00;2.63;;;;;;;;;;5032032;28;20060;-64
2023/05/24 07:21:33;;;;;;;7.63;1.85;;;;;;;;;;5031768;28;20050;-65
2023/05/24 07:23:59;;;;;;;9.10;1.83;;;;;;;;;;5031941;28;20049;-65
2023/05/24 07:26:27;;;;;;;4.95;1.92;;;;;;;;;;5032253;28;20480;-65
2023/05/24 07:28:54;;;;;;;9.65;2.20;;;;;;;;;;5032086;28;20056;-64
2023/05/24 07:31:21;;;;;;;8.80;1.90;;;;;;;;;;5032468;28;20463;-65
2023/05/24 07:33:48;;;;;;;6.15;1.70;;;;;;;;;;5032002;28;20076;-64
2023/05/24 07:36:14;;;;;;;8.38;1.88;;;;;;;;;;5031613;28;20505;-65
2023/05/24 07:38:42;;;;;;;7.85;2.00;;;;;;;;;;5032571;28;20057;-65
2023/05/24 07:41:08;;;;;;;10.10;2.05;;;;;;;;;;5031458;28;20049;-65
2023/05/24 07:43:37;;;;;;;9.00;2.60;;;;;;;;;;5032420;28;20046;-64
2023/05/24 07:46:03;;;;;;;9.10;2.90;;;;;;;;;;5031347;28;20509;-65
2023/05/24 07:48:30;;;;;;;8.38;2.05;;;;;;;;;;5032256;28;20049;-64
2023/05/24 07:50:57;;;;;;;12.15;2.47;;;;;;;;;;5031763;28;20041;-64
2023/05/24 07:53:23;;;;;;;7.38;2.42;;;;;;;;;;5031531;28;20052;-65
2023/05/24 07:55:50;;;;;;;10.20;2.67;;;;;;;;;;5032032;28;20246;-64
2023/05/24 07:58:17;;;;;;;8.20;1.85;;;;;;;;;;5030245;28;20049;-65
2023/05/24 08:00:45;;;;;;;6.70;2.10;;;;;;;;;;5031831;28;20045;-64
2023/05/24 08:03:13;;;;;;;5.63;2.08;;;;;;;;;;5031081;28;20057;-65
2023/05/24 08:05:40;;;;;;;9.00;2.47;;;;;;;;;;5031616;28;20072;-65
2023/05/24 08:08:06;;;;;;;6.40;1.85;;;;;;;;;;5030754;28;20465;-64
2023/05/24 08:10:33;;;;;;;8.82;2.70;;;;;;;;;;5031303;28;20045;-64
2023/05/24 08:12:59;;;;;;;7.70;2.40;;;;;;;;;;5031171;28;20054;-63
2023/05/24 08:15:26;;;;;;;7.60;1.90;;;;;;;;;;5030873;28;20055;-64
2023/05/24 08:17:54;;;;;;;7.63;2.63;;;;;;;;;;5031243;28;20050;-64
2023/05/24 08:20:21;;;;;;;10.93;2.10;;;;;;;;;;5029473;28;20415;-64
2023/05/24 08:22:48;;;;;;;9.25;2.10;;;;;;;;;;5010748;28;20052;-64
2023/05/24 08:25:14;;;;;;;6.43;2.10;;;;;;;;;;5011749;28;20050;-64
2023/05/24 08:27:41;;;;;;;6.53;2.08;;;;;;;;;;5010855;28;20061;-65
2023/05/24 08:30:09;;;;;;;5.32;1.80;;;;;;;;;;5017756;28;20057;-65
2023/05/24 08:32:37;;;;;;;5.30;2.10;;;;;;;;;;5030438;28;20072;-65
2023/05/24 08:35:06;;;;;;;5.35;2.33;;;;;;;;;;5030725;28;20087;-65
2023/05/24 08:37:32;;;;;;;7.63;2.05;;;;;;;;;;5030375;28;20503;-65
2023/05/24 08:39:59;;;;;;;3.45;1.77;;;;;;;;;;5030065;28;20056;-65
2023/05/24 08:42:28;;;;;;;8.32;2.42;;;;;;;;;;5014454;28;20387;-65
2023/05/24 08:45:02;;;;;;;6.90;1.92;;;;;;;;;;5009864;28;20515;-65
2023/05/24 08:47:30;;;;;;;8.80;2.22;;;;;;;;;;5010464;28;20415;-64
2023/05/24 08:49:57;;;;;;;5.55;1.90;;;;;;;;;;5012399;28;20049;-65
2023/05/24 08:52:27;;;;;;;5.35;1.60;;;;;;;;;;5029513;28;20051;-65
2023/05/24 08:54:55;;;;;;;6.70;2.08;;;;;;;;;;5029663;28;20051;-65
2023/05/24 08:57:22;;;;;;;6.88;2.10;;;;;;;;;;5029871;28;20069;-65
2023/05/24 08:59:49;;;;;;;6.18;2.03;;;;;;;;;;5030613;28;20053;-65
2023/05/24 09:02:17;;;;;;;5.75;2.00;;;;;;;;;;5029605;28;20150;-66
2023/05/24 09:04:46;;;;;;;5.82;2.00;;;;;;;;;;5029668;28;20045;-66
2023/05/24 09:07:14;;;;;;;5.75;2.03;;;;;;;;;;5028900;28;20049;-66
2023/05/24 09:09:46;;;;;;;8.55;1.90;;;;;;;;;;5029043;28;20045;-66
2023/05/24 09:12:17;;;;;;;5.10;2.00;;;;;;;;;;5009617;28;20046;-65
2023/05/24 09:14:46;;;;;;;5.13;1.75;;;;;;;;;;5010392;28;20439;-66
2023/05/24 09:17:14;;;;;;;6.32;2.00;;;;;;;;;;5020245;28;20052;-66
2023/05/24 09:19:44;;;;;;;7.88;2.10;;;;;;;;;;5028170;28;20057;-66
2023/05/24 09:22:13;;;;;;;5.55;1.70;;;;;;;;;;5029272;28;20049;-66
2023/05/24 09:24:47;;;;;;;8.98;2.45;;;;;;;;;;5029347;28;20049;-65
2023/05/24 09:27:14;;;;;;;6.88;2.08;;;;;;;;;;5029205;28;20046;-66
2023/05/24 09:29:42;;;;;;;8.18;2.13;;;;;;;;;;5028766;28;20053;-66
2023/05/24 09:32:09;;;;;;;12.23;2.00;;;;;;;;;;5029868;28;20080;-66
2023/05/24 09:34:38;;;;;;;6.47;2.67;;;;;;;;;;5024090;28;20511;-66
2023/05/24 09:37:05;;;;;;;6.47;1.98;;;;;;;;;;5029342;28;20050;-66
2023/05/24 09:39:32;;;;;;;6.00;2.03;;;;;;;;;;5029697;28;20053;-66
2023/05/24 09:42:02;;;;;;;6.15;1.88;;;;;;;;;;5029242;28;20045;-66
2023/05/24 09:44:29;;;;;;;6.35;2.25;;;;;;;;;;5026597;28;20037;-66
2023/05/24 09:47:02;;;;;;;5.47;2.35;;;;;;;;;;5027964;28;20042;-66
2023/05/24 09:49:29;;;;;;;6.70;2.20;;;;;;;;;;5029708;28;20479;-65
2023/05/24 09:51:55;;;;;;;8.38;2.25;;;;;;;;;;5026556;28;20064;-66
2023/05/24 09:54:24;;;;;;;8.98;2.22;;;;;;;;;;5028337;28;20041;-66
2023/05/24 09:56:52;;;;;;;7.22;2.47;;;;;;;;;;5029776;28;20053;-65
2023/05/24 09:59:20;;;;;;;7.07;2.30;;;;;;;;;;5029150;28;20085;-65
2023/05/24 10:01:52;;;;;;;8.05;2.00;;;;;;;;;;5026575;28;20447;-66
2023/05/24 10:04:19;;;;;;;7.40;2.63;;;;;;;;;;5028695;28;20045;-66
2023/05/24 10:06:47;;;;;;;6.90;3.20;;;;;;;;;;5029093;28;20057;-66
2023/05/24 10:09:14;;;;;;;5.60;2.60;;;;;;;;;;5028932;28;20440;-66
2023/05/24 10:11:41;;;;;;;8.18;2.17;;;;;;;;;;5028766;28;20061;-66
2023/05/24 10:14:09;;;;;;;4.95;2.55;;;;;;;;;;5029097;28;20053;-66
2023/05/24 10:16:37;;;;;;;7.72;2.53;;;;;;;;;;5028579;28;20052;-66
2023/05/24 10:19:04;;;;;;;7.55;2.30;;;;;;;;;;5030978;28;20072;-66
2023/05/24 10:21:32;;;;;;;7.70;2.50;;;;;;;;;;5027096;28;20064;-65
2023/05/24 10:24:02;;;;;;;9.73;2.45;;;;;;;;;;5033089;28;20045;-66
2023/05/24 10:26:32;;;;;;;6.47;2.53;;;;;;;;;;5031974;28;20392;-66
2023/05/24 10:29:04;;;;;;;4.38;2.22;;;;;;;;;;5032809;28;20053;-66
2023/05/24 10:31:33;;;;;;;5.72;2.60;;;;;;;;;;5031862;28;20094;-66
2023/05/24 10:34:03;;;;;;;5.78;2.65;;;;;;;;;;5032943;28;20046;-66
2023/05/24 10:36:31;;;;;;;6.10;2.33;;;;;;;;;;5032359;28;20045;-66
2023/05/24 10:38:58;;;;;;;6.25;2.30;;;;;;;;;;5032215;28;20467;-66
2023/05/24 10:41:26;;;;;;;4.35;2.30;;;;;;;;;;5016707;28;20046;-66
2023/05/24 10:43:53;;;;;;;5.10;2.17;;;;;;;;;;5012670;28;20488;-66
2023/05/24 10:46:21;;;;;;;7.68;2.35;;;;;;;;;;5013004;28;20205;-66
2023/05/24 10:48:59;;;;;;;6.05;2.45;;;;;;;;;;5016399;28;20049;-66
2023/05/24 10:51:37;;;;;;;6.78;2.58;;;;;;;;;;5026149;28;20050;-66
2023/05/24 10:54:14;;;;;;;7.55;2.90;;;;;;;;;;5032030;28;20100;-66
2023/05/24 10:56:42;;;;;;;6.78;2.80;;;;;;;;;;5031954;28;20049;-66
2023/05/24 10:59:08;;;;;;;4.95;2.45;;;;;;;;;;5032633;28;20411;-66
2023/05/24 11:01:36;;;;;;;6.53;2.80;;;;;;;;;;5031102;28;20510;-66
2023/05/24 11:04:10;;;;;;;5.88;2.60;;;;;;;;;;5032593;28;20052;-67
2023/05/24 11:06:48;;;;;;;6.03;2.63;;;;;;;;;;5031321;28;20054;-66
2023/05/24 11:09:15;;;;;;;11.20;3.13;;;;;;;;;;5032599;28;20483;-67
2023/05/24 11:11:45;;;;;;;6.93;2.70;;;;;;;;;;5030833;28;20050;-66
2023/05/24 11:14:12;;;;;;;6.72;2.90;;;;;;;;;;5031997;28;20057;-66
2023/05/24 11:16:39;;;;;;;7.55;2.97;;;;;;;;;;5031062;28;20060;-66
2023/05/24 11:19:14;;;;;;;5.80;2.85;;;;;;;;;;5031502;28;20045;-66
2023/05/24 11:21:44;;;;;;;5.45;3.17;;;;;;;;;;5029913;28;20616;-66
2023/05/24 11:24:12;;;;;;;6.63;2.67;;;;;;;;;;5023834;28;20050;-66
2023/05/24 11:26:39;;;;;;;6.95;3.10;;;;;;;;;;5028456;28;20053;-66
2023/05/24 11:29:06;;;;;;;6.50;2.60;;;;;;;;;;5025322;28;20052;-66
2023/05/24 11:31:33;;;;;;;8.43;2.80;;;;;;;;;;5030247;28;20129;-67
2023/05/24 11:34:00;;;;;;;6.22;3.00;;;;;;;;;;5030534;28;20084;-66
2023/05/24 11:36:27;;;;;;;7.32;2.72;;;;;;;;;;5028572;28;20042;-66
2023/05/24 11:38:56;;;;;;;7.03;2.75;;;;;;;;;;5024341;28;20053;-66
2023/05/24 11:41:24;;;;;;;9.05;3.25;;;;;;;;;;5027729;28;20046;-66
2023/05/24 11:43:51;;;;;;;8.50;3.08;;;;;;;;;;5025143;28;20041;-67
2023/05/24 11:46:19;;;;;;;9.52;3.67;;;;;;;;;;5029757;28;20484;-64
2023/05/24 11:48:56;;;;;;;6.07;2.90;;;;;;;;;;5031238;28;20064;-65
2023/05/24 11:51:26;;;;;;;7.43;3.03;;;;;;;;;;5023280;28;20045;-65
2023/05/24 11:53:52;;;;;;;6.13;3.08;;;;;;;;;;5026287;28;20041;-65
2023/05/24 11:56:20;;;;;;;9.80;3.40;;;;;;;;;;5022385;28;20419;-64
2023/05/24 11:58:49;;;;;;;6.97;2.95;;;;;;;;;;5024620;28;20049;-65
2023/05/24 12:01:23;;;;;;;5.40;2.85;;;;;;;;;;5024148;28;20041;-65
2023/05/24 12:03:51;;;;;;;4.38;2.65;;;;;;;;;;5029377;28;20123;-65
2023/05/24 12:06:18;;;;;;;6.20;2.83;;;;;;;;;;5025463;28;20053;-65
2023/05/24 12:08:45;;;;;;;6.18;2.60;;;;;;;;;;5029684;28;20044;-65
2023/05/24 12:11:13;;;;;;;6.93;2.70;;;;;;;;;;5030702;28;20056;-65
2023/05/24 12:13:40;;;;;;;9.75;3.13;;;;;;;;;;5031117;28;20519;-65
2023/05/24 12:16:08;;;;;;;5.78;3.00;;;;;;;;;;5030373;28;20056;-65
2023/05/24 12:18:34;;;;;;;7.32;3.00;;;;;;;;;;5030675;28;20054;-65
2023/05/24 12:21:01;;;;;;;6.47;2.90;;;;;;;;;;5029182;28;20049;-64
2023/05/24 12:23:30;;;;;;;5.88;2.83;;;;;;;;;;5030624;28;20072;-65
2023/05/24 12:26:01;;;;;;;6.93;2.75;;;;;;;;;;5023605;28;20088;-65
2023/05/24 12:28:27;;;;;;;7.75;3.53;;;;;;;;;;5010694;28;20050;-65
2023/05/24 12:30:54;;;;;;;8.10;2.90;;;;;;;;;;5010204;28;20479;-65
2023/05/24 12:33:23;;;;;;;6.25;3.10;;;;;;;;;;5011344;28;20423;-65
2023/05/24 12:35:50;;;;;;;6.35;2.97;;;;;;;;;;5010535;28;20057;-65
2023/05/24 12:38:24;;;;;;;6.70;3.00;;;;;;;;;;5026806;28;20052;-65
2023/05/24 12:40:50;;;;;;;10.27;3.78;;;;;;;;;;5030395;28;20076;-66
2023/05/24 12:43:19;;;;;;;8.20;3.60;;;;;;;;;;5030276;28;20041;-65
2023/05/24 12:45:46;;;;;;;10.15;3.70;;;;;;;;;;5030785;28;20046;-65
2023/05/24 12:48:13;;;;;;;10.30;4.82;;;;;;;;;;5029842;28;20099;-65
2023/05/24 12:50:41;;;;;;;7.43;4.30;;;;;;;;;;5030418;28;20420;-65
2023/05/24 12:53:07;;;;;;;9.77;4.00;;;;;;;;;;5030347;28;20519;-65
2023/05/24 12:55:35;;;;;;;6.45;3.97;;;;;;;;;;5030703;28;20049;-65
2023/05/24 12:58:04;;;;;;;6.30;4.13;;;;;;;;;;5029962;28;20111;-66
2023/05/24 13:00:31;;;;;;;7.22;4.80;;;;;;;;;;5030218;28;20088;-66
2023/05/24 13:02:58;;;;;;;8.70;4.68;;;;;;;;;;5030339;28;20046;-65
2023/05/24 13:05:27;;;;;;;8.30;4.95;;;;;;;;;;5019073;28;20410;-65
2023/05/24 13:07:56;;;;;;;10.55;4.90;;;;;;;;;;5010320;28;20057;-66
2023/05/24 13:10:23;;;;;;;10.20;5.20;;;;;;;;;;5009733;28;20100;-65
2023/05/24 13:12:49;;;;;;;7.47;4.80;;;;;;;;;;5010259;28;20066;-65
2023/05/24 13:15:18;;;;;;;11.35;5.30;;;;;;;;;;5009945;28;20045;-65
2023/05/24 13:17:45;;;;;;;8.10;5.20;;;;;;;;;;5010321;28;20049;-65
2023/05/24 13:20:12;;;;;;;8.35;5.25;;;;;;;;;;5009969;28;20058;-65
2023/05/24 13:22:39;;;;;;;9.23;5.45;;;;;;;;;;5010071;28;20056;-65
2023/05/24 13:25:08;;;;;;;12.40;5.68;;;;;;;;;;5013511;28;20046;-65
2023/05/24 13:27:35;;;;;;;8.50;5.60;;;;;;;;;;5029329;28;20053;-65
2023/05/24 13:30:02;;;;;;;11.18;5.63;;;;;;;;;;5028880;28;20041;-66
2023/05/24 13:32:28;;;;;;;8.43;6.00;;;;;;;;;;5028647;28;20045;-65
2023/05/24 13:34:55;;;;;;;10.00;5.60;;;;;;;;;;5030076;28;20045;-65
2023/05/24 13:37:21;;;;;;;13.00;5.43;;;;;;;;;;5029490;28;20076;-65
2023/05/24 13:39:48;;;;;;;6.30;4.93;;;;;;;;;;5029700;28;20046;-65
2023/05/24 13:42:16;;;;;;;7.07;5.15;;;;;;;;;;5029286;28;20055;-65
2023/05/24 13:44:43;;;;;;;7.97;4.88;;;;;;;;;;5030345;28;20057;-65
2023/05/24 13:47:09;;;;;;;8.80;5.93;;;;;;;;;;5029284;28;20054;-65
2023/05/24 13:49:36;;;;;;;6.90;5.28;;;;;;;;;;5027119;28;20056;-65
2023/05/24 13:52:03;;;;;;;12.52;5.72;;;;;;;;;;5030416;28;20491;-66
2023/05/24 13:54:30;;;;;;;9.65;5.88;;;;;;;;;;5033981;28;20057;-64
2023/05/24 13:56:58;;;;;;;10.20;5.45;;;;;;;;;;5033626;28;20049;-65
2023/05/24 13:59:27;;;;;;;10.88;5.38;;;;;;;;;;5033988;28;20133;-65
2023/05/24 14:01:53;;;;;;;7.68;5.20;;;;;;;;;;5033383;28;20474;-66
2023/05/24 14:04:20;;;;;;;9.85;5.53;;;;;;;;;;5033363;28;20055;-65
2023/05/24 14:06:46;;;;;;;7.50;5.20;;;;;;;;;;5033152;28;20407;-65
2023/05/24 14:09:14;;;;;;;8.23;5.30;;;;;;;;;;5032941;28;20063;-65
2023/05/24 14:11:40;;;;;;;12.52;6.22;;;;;;;;;;5032331;28;20507;-65
2023/05/24 14:14:07;;;;;;;11.45;5.93;;;;;;;;;;5033105;28;20050;-65
2023/05/24 14:16:35;;;;;;;11.18;5.22;;;;;;;;;;5033218;28;20471;-65
2023/05/24 14:19:02;;;;;;;10.00;5.35;;;;;;;;;;5032660;28;20441;-65
2023/05/24 14:21:29;;;;;;;10.80;5.50;;;;;;;;;;5031231;28;20415;-65
2023/05/24 14:23:55;;;;;;;7.95;5.80;;;;;;;;;;5033342;28;20048;-65
2023/05/24 14:26:22;;;;;;;6.70;5.25;;;;;;;;;;5032419;28;20050;-65
2023/05/24 14:28:49;;;;;;;8.73;4.88;;;;;;;;;;5033227;28;20049;-65
2023/05/24 14:31:16;;;;;;;9.80;5.55;;;;;;;;;;5032016;28;20045;-66
2023/05/24 14:33:44;;;;;;;7.40;4.90;;;;;;;;;;5033328;28;20050;-66
2023/05/24 14:36:10;;;;;;;7.10;5.20;;;;;;;;;;5032397;28;20072;-66
2023/05/24 14:38:37;;;;;;;5.90;4.53;;;;;;;;;;5032606;28;20128;-66
2023/05/24 14:41:03;;;;;;;8.55;4.82;;;;;;;;;;5031828;28;20062;-66